Time;durP1;ratioP1;P1;durP2;ratioP2;P2;SDS_P1;SDS_P2;PMS_P1;PMS_P2;Temp;Humidity;BMP_temperature;BMP_pressure;BME280_temperature;BME280_humidity;BME280_pressure;Samples;Min_cycle;Max_cycle;Signal;HPM_P1;HPM_P2
2023/11/24 00:02:21;;;;;;;;;;;7.20;99.90;;;6.49;100.00;97595.69;5021297;28;1730;-72
2023/11/24 00:04:48;;;;;;;;;;;7.20;99.90;;;6.51;100.00;97575.88;5001502;28;2259;-74
2023/11/24 00:07:17;;;;;;;;;;;7.30;99.90;;;6.54;100.00;97565.47;5002798;28;2065;-77
2023/11/24 00:09:44;;;;;;;;;;;7.30;99.90;;;6.65;100.00;97575.50;5017363;28;2205;-73
2023/11/24 00:12:11;;;;;;;;;;;7.40;99.90;;;6.75;100.00;97576.94;4999879;28;1918;-71
2023/11/24 00:14:38;;;;;;;;;;;7.50;99.90;;;6.80;100.00;97580.25;5005894;28;1890;-72
2023/11/24 00:17:05;;;;;;;;;;;7.50;99.90;;;6.76;100.00;97555.41;5022305;28;1976;-71
2023/11/24 00:19:33;;;;;;;;;;;7.50;99.90;;;6.80;100.00;97561.34;5020968;28;1930;-74
2023/11/24 00:21:59;;;;;;;;;;;7.60;99.90;;;6.88;100.00;97562.78;5023466;28;2227;-73
2023/11/24 00:24:27;;;;;;;;;;;7.60;99.90;;;7.11;100.00;97558.72;5024383;28;1687;-73
2023/11/24 00:26:55;;;;;;;;;;;7.70;99.90;;;7.12;100.00;97542.34;4995024;28;1902;-72
2023/11/24 00:29:22;;;;;;;;;;;7.80;99.90;;;7.17;100.00;97537.06;5025239;28;1813;-73
2023/11/24 00:31:48;;;;;;;;;;;7.80;99.90;;;7.20;100.00;97522.31;5008786;28;1701;-71
2023/11/24 00:34:15;;;;;;;;;;;7.90;99.90;;;7.26;100.00;97529.03;5021104;28;1457;-76
2023/11/24 00:36:42;;;;;;;;;;;7.90;99.90;;;7.41;100.00;97533.75;5002405;28;1692;-74
2023/11/24 00:39:10;;;;;;;;;;;8.00;99.90;;;7.35;100.00;97508.09;5021830;28;1657;-72
2023/11/24 00:41:37;;;;;;;;;;;8.00;99.90;;;7.27;100.00;97485.09;5019489;28;1726;-71
2023/11/24 00:44:05;;;;;;;;;;;8.10;99.90;;;7.33;100.00;97491.81;5018441;28;1487;-75
2023/11/24 00:46:32;;;;;;;;;;;8.10;99.90;;;7.49;100.00;97508.50;5022090;28;1506;-72
2023/11/24 00:48:59;;;;;;;;;;;8.10;99.90;;;7.60;100.00;97520.25;5004370;28;1902;-71
2023/11/24 00:51:26;;;;;;;;;;;8.20;99.90;;;7.53;100.00;97514.44;5008230;28;1437;-73
2023/11/24 00:53:53;;;;;;;;;;;8.20;99.90;;;7.62;100.00;97521.03;5021238;28;1511;-79
2023/11/24 00:56:20;;;;;;;;;;;8.40;99.90;;;7.73;100.00;97517.25;5020439;28;1656;-73
2023/11/24 00:58:48;;;;;;;;;;;8.60;99.90;;;7.68;100.00;97511.34;5022939;28;1666;-74
2023/11/24 01:01:15;;;;;;;;;;;8.50;99.90;;;7.69;100.00;97520.81;5004261;28;1730;-74
2023/11/24 01:03:42;;;;;;;;;;;8.40;99.90;;;7.77;100.00;97504.22;5007318;28;1505;-75
2023/11/24 01:06:09;;;;;;;;;;;8.40;99.90;;;7.89;100.00;97491.75;5023214;28;1402;-71
2023/11/24 01:08:36;;;;;;;;;;;8.40;99.90;;;7.91;100.00;97505.47;5023669;28;1906;-72
2023/11/24 01:11:04;;;;;;;;;;;8.40;99.90;;;7.77;100.00;97507.63;5022873;28;1566;-71
2023/11/24 01:13:32;;;;;;;;;;;8.50;99.90;;;7.93;100.00;97502.81;5017498;28;1575;-72
2023/11/24 01:16:00;;;;;;;;;;;8.50;99.90;;;7.79;100.00;97523.94;5022345;28;1379;-72
2023/11/24 01:18:27;;;;;;;;;;;8.50;99.90;;;7.92;100.00;97517.47;5006359;28;1534;-78
2023/11/24 01:20:58;;;;;;;;;;;8.50;99.90;;;7.80;100.00;97511.84;5022025;28;1560;-73
2023/11/24 01:23:27;;;;;;;;;;;8.50;99.90;;;7.93;100.00;97519.16;5020492;28;1538;-73
2023/11/24 01:25:54;;;;;;;;;;;8.50;99.90;;;7.87;100.00;97510.78;5015175;28;1561;-73
2023/11/24 01:28:25;;;;;;;;;;;8.50;99.90;;;8.01;100.00;97513.75;5021291;28;2009;-75
2023/11/24 01:30:52;;;;;;;;;;;8.60;99.90;;;7.98;100.00;97498.31;5020216;28;1561;-74
2023/11/24 01:33:23;;;;;;;;;;;8.60;99.90;;;8.01;100.00;97515.50;5005725;28;1807;-74
2023/11/24 01:35:50;;;;;;;;;;;8.70;99.90;;;8.02;100.00;97509.41;5022615;28;1469;-72
2023/11/24 01:38:17;;;;;;;;;;;8.70;99.90;;;8.12;100.00;97513.41;5021875;28;1618;-75
2023/11/24 01:40:44;;;;;;;;;;;8.70;99.90;;;8.12;100.00;97511.66;5022045;28;1513;-74
2023/11/24 01:43:11;;;;;;;;;;;8.70;99.90;;;8.03;100.00;97509.38;5007342;28;1620;-74
2023/11/24 01:45:37;;;;;;;;;;;8.70;99.90;;;8.05;100.00;97501.53;5020625;28;1516;-73
2023/11/24 01:48:05;;;;;;;;;;;8.70;99.90;;;8.15;100.00;97500.34;5008023;28;1910;-72
2023/11/24 01:50:32;;;;;;;;;;;8.70;99.90;;;8.05;100.00;97486.03;5005036;28;1697;-74
2023/11/24 01:52:59;;;;;;;;;;;8.70;99.90;;;8.08;100.00;97491.97;5020957;28;1532;-72
2023/11/24 01:55:26;;;;;;;;;;;8.70;99.90;;;8.04;100.00;97468.84;5004752;28;1693;-73
2023/11/24 01:57:53;;;;;;;;;;;8.70;99.90;;;8.11;100.00;97509.09;5003958;28;1627;-76
2023/11/24 02:00:20;;;;;;;;;;;8.80;99.90;;;8.05;100.00;97486.91;5005908;28;1541;-72
2023/11/24 02:02:47;;;;;;;;;;;8.70;99.90;;;8.09;100.00;97474.69;5011050;28;1503;-75
2023/11/24 02:05:16;;;;;;;;;;;8.70;99.90;;;8.26;100.00;97471.56;5018617;28;1524;-72
2023/11/24 02:07:43;;;;;;;;;;;8.70;99.90;;;8.11;100.00;97455.66;5023905;28;1972;-74
2023/11/24 02:10:11;;;;;;;;;;;8.70;99.90;;;8.17;100.00;97446.84;5008098;28;1616;-73
2023/11/24 02:12:38;;;;;;;;;;;8.70;99.90;;;8.23;100.00;97449.19;5024148;28;1549;-74
2023/11/24 02:15:09;;;;;;;;;;;8.70;99.90;;;8.17;100.00;97437.34;5019279;28;1656;-73
2023/11/24 02:17:36;;;;;;;;;;;8.80;99.90;;;8.18;100.00;97439.03;5004787;28;1550;-71
2023/11/24 02:20:13;;;;;;;;;;;8.70;99.90;;;8.24;100.00;97442.31;4991722;28;1595;-72
2023/11/24 02:22:44;;;;;;;;;;;8.80;99.90;;;8.03;100.00;97429.25;5020445;28;1608;-72
2023/11/24 02:25:11;;;;;;;;;;;8.80;99.90;;;8.20;100.00;97443.31;5006685;28;1530;-71
2023/11/24 02:27:38;;;;;;;;;;;8.80;99.90;;;8.23;100.00;97461.28;5002512;28;1910;-71
2023/11/24 02:30:06;;;;;;;;;;;8.80;99.90;;;8.26;100.00;97459.47;5020298;28;1670;-71
2023/11/24 02:32:33;;;;;;;;;;;8.80;99.90;;;8.15;100.00;97459.00;4985408;28;1613;-72
2023/11/24 02:35:01;;;;;;;;;;;8.80;99.90;;;8.09;100.00;97457.44;5019828;28;1634;-73
2023/11/24 02:37:28;;;;;;;;;;;8.80;99.90;;;8.18;100.00;97462.28;5017169;28;1576;-72
2023/11/24 02:39:56;;;;;;;;;;;8.80;99.90;;;8.20;100.00;97454.50;5019414;28;1544;-74
2023/11/24 02:42:24;;;;;;;;;;;8.80;99.90;;;8.23;100.00;97459.53;5020368;28;1816;-72
2023/11/24 02:44:51;;;;;;;;;;;8.80;99.90;;;8.24;100.00;97426.81;5007450;28;1506;-73
2023/11/24 02:47:18;;;;;;;;;;;8.90;99.90;;;8.35;100.00;97438.44;5021441;28;1604;-71
2023/11/24 02:49:45;;;;;;;;;;;8.90;99.90;;;8.31;100.00;97434.28;5022102;28;1980;-72
2023/11/24 02:52:12;;;;;;;;;;;9.00;99.90;;;8.41;100.00;97434.81;5017683;28;1658;-71
2023/11/24 02:54:39;;;;;;;;;;;9.00;99.90;;;8.34;100.00;97426.38;5004136;28;1463;-71
2023/11/24 02:57:06;;;;;;;;;;;9.00;99.90;;;8.42;100.00;97435.69;5020020;28;1763;-73
2023/11/24 02:59:32;;;;;;;;;;;9.00;99.90;;;8.48;100.00;97427.66;5019672;28;1564;-71
2023/11/24 03:01:59;;;;;;;;;;;9.00;99.90;;;8.61;100.00;97421.16;5001544;28;1467;-71
2023/11/24 03:04:27;;;;;;;;;;;9.00;99.90;;;8.47;100.00;97405.31;5022632;28;1429;-71
2023/11/24 03:06:54;;;;;;;;;;;9.00;99.90;;;8.48;100.00;97401.81;5020224;28;2027;-73
2023/11/24 03:09:23;;;;;;;;;;;9.10;99.90;;;8.48;100.00;97392.28;5017410;28;1898;-77
2023/11/24 03:11:54;;;;;;;;;;;9.10;99.90;;;8.54;100.00;97411.94;5016808;28;1488;-73
2023/11/24 03:14:20;;;;;;;;;;;9.10;99.90;;;8.56;100.00;97398.03;5018275;28;1700;-73
2023/11/24 03:16:47;;;;;;;;;;;9.10;99.90;;;8.51;100.00;97405.13;5018590;28;1586;-70
2023/11/24 03:19:14;;;;;;;;;;;9.10;99.90;;;8.54;100.00;97409.34;5019729;28;1525;-77
2023/11/24 03:21:41;;;;;;;;;;;9.00;99.90;;;8.60;100.00;97393.59;5004634;28;1820;-71
2023/11/24 03:24:09;;;;;;;;;;;9.10;99.90;;;8.58;100.00;97391.06;5018862;28;1636;-74
2023/11/24 03:26:36;;;;;;;;;;;9.20;99.90;;;8.57;100.00;97389.38;5019847;28;1647;-74
2023/11/24 03:29:03;;;;;;;;;;;9.20;99.90;;;8.59;100.00;97397.06;5003660;28;1906;-72
2023/11/24 03:31:30;;;;;;;;;;;;;;;8.65;100.00;97394.28;5020057;28;1528;-71
2023/11/24 03:33:58;;;;;;;;;;;9.20;99.90;;;8.64;100.00;97392.56;5017462;28;1837;-72
2023/11/24 03:36:25;;;;;;;;;;;9.20;99.90;;;8.71;100.00;97369.88;5021582;28;1591;-73
2023/11/24 03:38:51;;;;;;;;;;;9.10;99.90;;;8.61;100.00;97391.84;5022362;28;1505;-73
2023/11/24 03:41:18;;;;;;;;;;;9.10;99.90;;;8.43;100.00;97381.28;5000776;28;1430;-74
2023/11/24 03:43:45;;;;;;;;;;;9.10;99.90;;;8.45;100.00;97360.53;5022479;28;1567;-72
2023/11/24 03:46:12;;;;;;;;;;;9.10;99.90;;;8.50;100.00;97380.16;5003758;28;1525;-72
2023/11/24 03:48:39;;;;;;;;;;;9.10;99.90;;;8.52;100.00;97380.94;5015733;28;1996;-73
2023/11/24 03:51:06;;;;;;;;;;;9.10;99.90;;;8.50;100.00;97392.25;5014115;28;1712;-72
2023/11/24 03:53:33;;;;;;;;;;;9.00;99.90;;;8.41;100.00;97377.91;5020052;28;1774;-73
2023/11/24 03:56:01;;;;;;;;;;;9.10;99.90;;;8.47;100.00;97392.38;5020071;28;1605;-72
2023/11/24 03:58:28;;;;;;;;;;;9.10;99.90;;;8.40;100.00;97401.22;5022101;28;1497;-73
2023/11/24 04:00:55;;;;;;;;;;;9.00;99.90;;;8.34;100.00;97392.78;5023791;28;1637;-75
2023/11/24 04:03:22;;;;;;;;;;;9.00;99.90;;;8.27;100.00;97395.66;5023573;28;1528;-73
2023/11/24 04:05:49;;;;;;;;;;;9.00;99.90;;;8.34;100.00;97410.88;5022853;28;1544;-73
2023/11/24 04:08:18;;;;;;;;;;;9.00;99.90;;;8.33;100.00;97431.63;5025469;28;1995;-74
2023/11/24 04:10:45;;;;;;;;;;;8.90;99.90;;;8.26;100.00;97425.00;5009826;28;1555;-73
2023/11/24 04:13:12;;;;;;;;;;;8.90;99.90;;;8.14;100.00;97440.06;4992237;28;1487;-75
2023/11/24 04:15:39;;;;;;;;;;;8.90;99.90;;;8.06;100.00;97420.53;5021191;28;1594;-73
2023/11/24 04:18:06;;;;;;;;;;;8.80;99.90;;;8.02;100.00;97424.94;5021424;28;1555;-76
2023/11/24 04:20:33;;;;;;;;;;;8.70;99.90;;;8.04;100.00;97423.16;5024593;28;1725;-76
2023/11/24 04:23:00;;;;;;;;;;;8.80;99.90;;;7.96;100.00;97432.94;5023598;28;1673;-72
2023/11/24 04:25:27;;;;;;;;;;;8.70;99.90;;;7.88;100.00;97432.34;5002203;28;1629;-75
2023/11/24 04:27:54;;;;;;;;;;;8.70;99.90;;;7.83;100.00;97423.91;5020650;28;1446;-72
2023/11/24 04:30:21;;;;;;;;;;;8.60;99.90;;;7.78;100.00;97430.94;5023126;28;2003;-73
2023/11/24 04:32:48;;;;;;;;;;;8.50;99.90;;;7.84;100.00;97405.75;5024293;28;1548;-74
2023/11/24 04:35:15;;;;;;;;;;;8.50;99.90;;;7.84;100.00;97402.34;5023536;28;1382;-73
2023/11/24 04:37:43;;;;;;;;;;;8.50;99.90;;;7.82;100.00;97392.03;5026079;28;1414;-76
2023/11/24 04:40:10;;;;;;;;;;;8.50;99.90;;;7.82;100.00;97386.03;5007288;28;1928;-73
2023/11/24 04:42:38;;;;;;;;;;;8.50;99.90;;;7.88;100.00;97383.25;5025624;28;1944;-73
2023/11/24 04:45:10;;;;;;;;;;;8.50;99.90;;;7.89;100.00;97372.00;5022636;28;1519;-72
2023/11/24 04:47:38;;;;;;;;;;;8.50;99.90;;;7.85;100.00;97373.88;4992501;28;1539;-72
2023/11/24 04:50:06;;;;;;;;;;;8.50;99.90;;;7.62;100.00;97373.78;5005307;28;1969;-72
2023/11/24 04:52:34;;;;;;;;;;;8.40;99.90;;;7.64;100.00;97369.41;5008788;28;1722;-73
2023/11/24 04:55:03;;;;;;;;;;;8.40;99.90;;;7.63;100.00;97367.75;5022763;28;1453;-73
2023/11/24 04:57:31;;;;;;;;;;;8.30;99.90;;;7.60;100.00;97373.88;5005187;28;1835;-72
2023/11/24 04:59:58;;;;;;;;;;;8.20;99.90;;;7.62;100.00;97366.03;5002221;28;1558;-72
2023/11/24 05:02:25;;;;;;;;;;;8.20;99.90;;;7.35;100.00;97365.25;5023627;28;1719;-72
2023/11/24 05:04:52;;;;;;;;;;;8.20;99.90;;;7.44;100.00;97357.19;5023724;28;1537;-73
2023/11/24 05:07:21;;;;;;;;;;;8.10;99.90;;;7.32;100.00;97376.50;5022911;28;1584;-72
2023/11/24 05:09:48;;;;;;;;;;;8.00;99.90;;;7.27;100.00;97375.81;5004329;28;1938;-76
2023/11/24 05:12:15;;;;;;;;;;;8.00;99.90;;;7.25;100.00;97351.78;5004792;28;1622;-75
2023/11/24 05:14:42;;;;;;;;;;;8.00;99.90;;;7.01;100.00;97349.13;5022587;28;1580;-73
2023/11/24 05:17:09;;;;;;;;;;;7.90;99.90;;;6.96;100.00;97355.31;5024008;28;1512;-71
2023/11/24 05:19:36;;;;;;;;;;;7.90;99.90;;;6.94;100.00;97357.94;5018629;28;1706;-72
2023/11/24 05:22:03;;;;;;;;;;;7.80;99.90;;;6.91;100.00;97356.31;5022285;28;1532;-73
2023/11/24 05:24:30;;;;;;;;;;;7.70;99.90;;;6.85;100.00;97353.06;5018412;28;1543;-73
2023/11/24 05:26:58;;;;;;;;;;;7.70;99.90;;;6.79;100.00;97361.00;4992172;28;1575;-71
2023/11/24 05:29:25;;;;;;;;;;;7.70;99.90;;;6.78;100.00;97365.31;5003115;28;1983;-71
2023/11/24 05:31:51;;;;;;;;;;;7.70;99.90;;;6.76;100.00;97372.25;5003630;28;1591;-72
2023/11/24 05:34:19;;;;;;;;;;;7.70;99.90;;;6.80;100.00;97378.19;5018490;28;1526;-74
2023/11/24 05:36:46;;;;;;;;;;;7.60;99.90;;;6.79;100.00;97363.56;5006573;28;1668;-72
2023/11/24 05:39:13;;;;;;;;;;;7.60;99.90;;;6.81;100.00;97372.13;5022083;28;1583;-73
2023/11/24 05:41:40;;;;;;;;;;;7.60;99.90;;;6.74;100.00;97366.31;5021697;28;1476;-76
2023/11/24 05:44:07;;;;;;;;;;;7.70;99.90;;;6.77;100.00;97368.78;5008116;28;1629;-72
2023/11/24 05:46:34;;;;;;;;;;;7.60;99.90;;;6.59;100.00;97366.75;5022919;28;1489;-72
2023/11/24 05:49:01;;;;;;;;;;;7.60;99.90;;;6.61;100.00;97359.81;5021132;28;1930;-73
2023/11/24 05:51:27;;;;;;;;;;;7.50;99.90;;;6.47;100.00;97363.66;5009856;28;1607;-77
2023/11/24 05:53:55;;;;;;;;;;;7.40;99.90;;;6.39;100.00;97359.63;5002089;28;1698;-72
2023/11/24 05:56:22;;;;;;;;;;;7.30;99.90;;;6.34;100.00;97364.94;5003887;28;1585;-74
2023/11/24 05:58:51;;;;;;;;;;;7.30;99.90;;;6.37;100.00;97369.97;5019745;28;1556;-73
2023/11/24 06:01:20;;;;;;;;;;;7.20;99.90;;;6.25;100.00;97362.63;5021733;28;1543;-74
2023/11/24 06:03:47;;;;;;;;;;;7.20;99.90;;;6.17;100.00;97359.41;5007220;28;1683;-71
2023/11/24 06:06:14;;;;;;;;;;;7.20;99.90;;;6.05;100.00;97364.00;4984648;28;1584;-75
2023/11/24 06:08:41;;;;;;;;;;;7.10;99.90;;;6.00;100.00;97365.88;5022438;28;2016;-72
2023/11/24 06:11:07;;;;;;;;;;;7.00;99.90;;;6.02;100.00;97376.13;5021756;28;1480;-77
2023/11/24 06:13:34;;;;;;;;;;;7.00;99.90;;;6.16;100.00;97366.28;5004020;28;1529;-71
2023/11/24 06:16:01;;;;;;;;;;;7.00;99.90;;;6.03;100.00;97370.94;4990473;28;1543;-73
2023/11/24 06:18:30;;;;;;;;;;;7.00;99.90;;;6.07;100.00;97367.38;5005296;28;1501;-71
2023/11/24 06:20:57;;;;;;;;;;;6.90;99.90;;;6.12;100.00;97371.59;5025249;28;1516;-71
2023/11/24 06:23:24;;;;;;;;;;;6.90;99.90;;;6.21;100.00;97372.16;5025291;28;1058;-73
2023/11/24 06:25:52;;;;;;;;;;;6.90;99.90;;;6.11;100.00;97365.56;5024333;28;1625;-73
2023/11/24 06:28:18;;;;;;;;;;;6.90;99.90;;;6.05;100.00;97370.91;5006472;28;1077;-74
2023/11/24 06:30:46;;;;;;;;;;;7.00;99.90;;;6.08;100.00;97373.38;5021341;28;1962;-73
2023/11/24 06:33:13;;;;;;;;;;;6.90;99.90;;;6.06;100.00;97377.72;5022396;28;1113;-72
2023/11/24 06:35:40;;;;;;;;;;;6.90;99.90;;;6.05;100.00;97383.78;5002638;28;1577;-73
2023/11/24 06:38:08;;;;;;;;;;;6.90;99.90;;;6.01;100.00;97382.19;5001680;28;1642;-72
2023/11/24 06:40:35;;;;;;;;;;;6.90;99.90;;;6.00;100.00;97389.06;5002474;28;1791;-72
2023/11/24 06:43:02;;;;;;;;;;;6.80;99.90;;;5.98;100.00;97393.41;5023271;28;1555;-72
2023/11/24 06:45:29;;;;;;;;;;;6.80;99.90;;;5.97;100.00;97401.16;5003207;28;1561;-71
2023/11/24 06:47:56;;;;;;;;;;;6.70;99.90;;;5.78;100.00;97400.78;5003068;28;1620;-71
2023/11/24 06:50:23;;;;;;;;;;;6.70;99.90;;;5.74;100.00;97394.03;4993907;28;1906;-73
2023/11/24 06:52:49;;;;;;;;;;;6.70;99.90;;;5.69;100.00;97394.16;5003758;28;1503;-71
2023/11/24 06:55:16;;;;;;;;;;;6.70;99.90;;;5.80;100.00;97396.44;5022682;28;1564;-72
2023/11/24 06:57:43;;;;;;;;;;;6.60;99.90;;;5.89;100.00;97388.47;5003845;28;1578;-73
2023/11/24 07:00:17;;;;;;;;;;;6.60;99.90;;;5.99;100.00;97396.81;5019654;28;1587;-71
2023/11/24 07:02:46;;;;;;;;;;;6.60;99.90;;;6.11;100.00;97404.22;5019566;28;1551;-74
2023/11/24 07:05:13;;;;;;;;;;;6.70;99.90;;;5.97;100.00;97406.31;5021501;28;1476;-74
2023/11/24 07:07:40;;;;;;;;;;;6.80;99.90;;;5.90;100.00;97394.47;5012359;28;1597;-73
2023/11/24 07:10:07;;;;;;;;;;;6.80;99.90;;;5.94;100.00;97389.22;4988642;28;1906;-70
2023/11/24 07:12:34;;;;;;;;;;;6.80;99.90;;;6.08;100.00;97381.94;5022812;28;1618;-74
2023/11/24 07:15:03;;;;;;;;;;;6.80;99.90;;;5.87;100.00;97385.09;4987858;28;1579;-72
2023/11/24 07:17:33;;;;;;;;;;;6.80;99.90;;;5.98;100.00;97372.81;5020892;28;1592;-71
2023/11/24 07:20:00;;;;;;;;;;;6.80;99.90;;;6.05;100.00;97378.63;5018283;28;1560;-72
2023/11/24 07:22:27;;;;;;;;;;;6.80;99.90;;;5.95;100.00;97379.75;5022117;28;1579;-71
2023/11/24 07:24:55;;;;;;;;;;;6.80;99.90;;;5.96;100.00;97384.88;5021400;28;1560;-73
2023/11/24 07:27:22;;;;;;;;;;;6.80;99.90;;;5.96;100.00;97391.78;5002019;28;1574;-71
2023/11/24 07:29:49;;;;;;;;;;;6.80;99.90;;;5.99;100.00;97387.34;5020544;28;1922;-75
2023/11/24 07:32:16;;;;;;;;;;;6.80;99.90;;;6.15;100.00;97381.78;5021033;28;1586;-73
2023/11/24 07:34:43;;;;;;;;;;;6.90;99.90;;;6.05;100.00;97391.50;5020072;28;1112;-71
2023/11/24 07:37:10;;;;;;;;;;;6.80;99.90;;;6.12;100.00;97385.31;5021555;28;1611;-73
2023/11/24 07:39:37;;;;;;;;;;;6.90;99.90;;;6.02;100.00;97384.72;5021918;28;1698;-71
2023/11/24 07:42:04;;;;;;;;;;;6.90;99.90;;;6.06;100.00;97375.16;5020465;28;1492;-73
2023/11/24 07:44:31;;;;;;;;;;;6.90;99.90;;;6.07;100.00;97379.44;4991816;28;1583;-71
2023/11/24 07:46:58;;;;;;;;;;;6.90;99.90;;;6.07;100.00;97389.75;5021459;28;1536;-72
2023/11/24 07:49:25;;;;;;;;;;;7.00;99.90;;;6.10;100.00;97397.38;5003809;28;1985;-72
2023/11/24 07:51:52;;;;;;;;;;;6.90;99.90;;;5.91;100.00;97397.00;5020681;28;1399;-72
2023/11/24 07:54:19;;;;;;;;;;;6.80;99.90;;;5.94;100.00;97401.22;5018939;28;1543;-73
2023/11/24 07:56:47;;;;;;;;;;;6.70;99.90;;;6.07;100.00;97398.31;5015789;28;1611;-72
2023/11/24 07:59:14;;;;;;;;;;;6.80;99.90;;;6.24;100.00;97397.00;5020352;28;1528;-72
2023/11/24 08:01:41;;;;;;;;;;;6.80;99.90;;;5.96;100.00;97386.63;5006985;28;1562;-72
2023/11/24 08:04:08;;;;;;;;;;;6.80;99.90;;;6.17;100.00;97388.59;5020506;28;1788;-71
2023/11/24 08:06:35;;;;;;;;;;;7.00;99.90;;;6.18;100.00;97385.13;5020113;28;1587;-71
2023/11/24 08:09:04;;;;;;;;;;;7.00;99.90;;;6.22;100.00;97391.03;5021062;28;1894;-71
2023/11/24 08:11:33;;;;;;;;;;;7.00;99.90;;;6.07;100.00;97376.88;5019834;28;1549;-74
2023/11/24 08:14:00;;;;;;;;;;;7.00;99.90;;;6.08;100.00;97374.22;5020743;28;1697;-71
2023/11/24 08:16:27;;;;;;;;;;;6.90;99.90;;;6.11;100.00;97360.41;4986470;28;2313;-73
2023/11/24 08:18:54;;;;;;;;;;;6.80;99.90;;;6.12;100.00;97369.84;5000930;28;1762;-71
2023/11/24 08:21:21;;;;;;;;;;;6.70;99.90;;;6.08;100.00;97369.06;5001550;28;1265;-74
2023/11/24 08:23:48;;;;;;;;;;;6.70;99.90;;;6.26;100.00;97353.97;5021456;28;1540;-74
2023/11/24 08:26:17;;;;;;;;;;;6.70;99.90;;;6.04;100.00;97346.00;5020156;28;1560;-73
2023/11/24 08:28:45;;;;;;;;;;;6.80;99.90;;;6.22;100.00;97342.91;5018049;28;1582;-71
2023/11/24 08:31:16;;;;;;;;;;;6.90;99.90;;;6.12;100.00;97345.81;5001765;28;1910;-74
2023/11/24 08:33:43;;;;;;;;;;;6.80;99.90;;;6.18;100.00;97333.59;5001904;28;1398;-72
2023/11/24 08:36:11;;;;;;;;;;;6.80;99.90;;;6.07;100.00;97327.91;5018419;28;1392;-71
2023/11/24 08:38:38;;;;;;;;;;;6.90;99.90;;;6.11;100.00;97319.16;4986970;28;1962;-74
2023/11/24 08:41:17;;;;;;;;;;;6.90;99.90;;;6.13;100.00;97308.84;5017175;28;1727;-71
2023/11/24 08:44:01;;;;;;;;;;;6.90;99.90;;;5.98;100.00;97298.09;5013171;28;1424;-74
2023/11/24 08:46:28;;;;;;;;;;;6.80;99.90;;;6.13;100.00;97307.09;5023165;28;1440;-71
2023/11/24 08:48:55;;;;;;;;;;;6.80;99.90;;;6.04;100.00;97302.22;5006532;28;1380;-74
2023/11/24 08:51:22;;;;;;;;;;;6.80;99.90;;;5.87;100.00;97272.59;5008475;28;1903;-73
2023/11/24 08:53:49;;;;;;;;;;;6.70;99.90;;;6.14;100.00;97295.06;5025727;28;1399;-71
2023/11/24 08:56:16;;;;;;;;;;;6.70;99.90;;;6.00;100.00;97286.00;5005851;28;1712;-73
2023/11/24 08:58:42;;;;;;;;;;;6.80;99.90;;;6.08;100.00;97288.34;5021206;28;1780;-74
2023/11/24 09:01:12;;;;;;;;;;;6.80;99.90;;;6.16;100.00;97272.66;5011175;28;1617;-72
2023/11/24 09:03:42;;;;;;;;;;;6.80;99.90;;;6.34;100.00;97254.09;5005356;28;1417;-71
2023/11/24 09:06:09;;;;;;;;;;;6.90;99.90;;;6.24;100.00;97265.56;5023545;28;1399;-72
2023/11/24 09:08:36;;;;;;;;;;;7.00;99.90;;;6.41;100.00;97267.59;5022277;28;1636;-73
2023/11/24 09:11:04;;;;;;;;;;;6.90;99.90;;;6.47;100.00;97270.84;5007059;28;1985;-73
2023/11/24 09:13:30;;;;;;;;;;;7.00;99.90;;;6.48;100.00;97262.22;5023468;28;1376;-74
2023/11/24 09:15:57;;;;;;;;;;;7.00;99.90;;;6.59;100.00;97274.78;5022381;28;1461;-71
2023/11/24 09:18:24;;;;;;;;;;;7.20;99.90;;;6.79;100.00;97265.56;5009796;28;1416;-72
2023/11/24 09:20:55;;;;;;;;;;;7.10;99.90;;;6.66;100.00;97254.78;5003847;28;1319;-72
2023/11/24 09:23:23;;;;;;;;;;;7.20;99.90;;;6.74;100.00;97257.13;5020878;28;1496;-74
2023/11/24 09:25:50;;;;;;;;;;;7.30;99.90;;;6.72;100.00;97251.16;5026668;28;1606;-74
2023/11/24 09:28:16;;;;;;;;;;;7.20;99.90;;;6.70;100.00;97249.50;5021570;28;1077;-72
2023/11/24 09:30:44;;;;;;;;;;;7.30;99.90;;;6.72;100.00;97246.00;5006202;28;1973;-75
2023/11/24 09:33:11;;;;;;;;;;;7.20;99.90;;;6.81;100.00;97241.38;5024454;28;1725;-72
2023/11/24 09:35:38;;;;;;;;;;;7.30;99.90;;;6.80;100.00;97223.41;5026236;28;1407;-71
2023/11/24 09:38:06;;;;;;;;;;;7.30;99.90;;;6.67;100.00;97222.94;5026159;28;1466;-70
2023/11/24 09:40:33;;;;;;;;;;;7.30;99.90;;;6.64;100.00;97234.22;5007964;28;1416;-72
2023/11/24 09:43:03;;;;;;;;;;;7.30;99.90;;;6.67;100.00;97222.94;5025638;28;1405;-72
2023/11/24 09:45:31;;;;;;;;;;;7.30;99.90;;;6.54;100.00;97217.34;5003568;28;1386;-72
2023/11/24 09:47:58;;;;;;;;;;;7.20;99.90;;;6.34;100.00;97220.56;5003269;28;1380;-72
2023/11/24 09:50:27;;;;;;;;;;;7.20;99.90;;;6.24;100.00;97226.88;5005675;28;1980;-71
2023/11/24 09:52:56;;;;;;;;;;;7.20;99.90;;;6.40;100.00;97225.50;5011447;28;1403;-74
2023/11/24 09:55:24;;;;;;;;;;;7.20;99.90;;;6.55;100.00;97226.78;5005857;28;1492;-72
2023/11/24 09:57:55;;;;;;;;;;;7.10;99.90;;;6.38;100.00;97221.31;5005466;28;1392;-72
2023/11/24 10:00:23;;;;;;;;;;;7.00;99.90;;;6.39;100.00;97223.84;5002415;28;1393;-74
2023/11/24 10:02:52;;;;;;;;;;;7.10;99.90;;;6.17;100.00;97209.94;5010449;28;1209;-75
2023/11/24 10:05:20;;;;;;;;;;;7.00;99.90;;;6.40;100.00;97215.19;5021085;28;1155;-73
2023/11/24 10:07:50;;;;;;;;;;;6.90;99.90;;;6.26;100.00;97228.53;5007768;28;1081;-72
2023/11/24 10:10:25;;;;;;;;;;;6.80;99.90;;;6.26;100.00;97209.66;5006283;28;1985;-72
2023/11/24 10:12:59;;;;;;;;;;;6.80;99.90;;;6.33;100.00;97210.31;5005831;28;1473;-73
2023/11/24 10:15:27;;;;;;;;;;;6.80;99.90;;;6.37;100.00;97196.44;5010743;28;1390;-72
2023/11/24 10:17:54;;;;;;;;;;;6.70;99.90;;;6.06;100.00;97176.75;5025020;28;1411;-72
2023/11/24 10:20:22;;;;;;;;;;;6.80;99.90;;;6.32;100.00;97188.84;5025302;28;1063;-73
2023/11/24 10:22:50;;;;;;;;;;;6.70;99.90;;;6.17;100.00;97179.84;5006057;28;1324;-74
2023/11/24 10:25:21;;;;;;;;;;;6.80;99.90;;;6.17;100.00;97173.84;5026975;28;1146;-71
2023/11/24 10:27:48;;;;;;;;;;;6.90;99.90;;;5.96;100.00;97170.22;5021695;28;1092;-72
2023/11/24 10:30:18;;;;;;;;;;;6.80;99.90;;;5.76;100.00;97163.88;5019994;28;1899;-73
2023/11/24 10:32:47;;;;;;;;;;;6.80;99.90;;;5.85;100.00;97166.19;5021888;28;1331;-73
2023/11/24 10:35:14;;;;;;;;;;;6.70;99.90;;;5.93;100.00;97165.09;4993191;28;1025;-73
2023/11/24 10:37:41;;;;;;;;;;;6.60;99.90;;;5.74;100.00;97154.53;5021474;28;1130;-72
2023/11/24 10:40:13;;;;;;;;;;;6.60;99.90;;;5.87;100.00;97159.25;5002905;28;1401;-74
2023/11/24 10:42:47;;;;;;;;;;;6.60;99.90;;;5.87;100.00;97156.69;5018825;28;1613;-73
2023/11/24 10:45:20;;;;;;;;;;;6.70;99.90;;;6.12;100.00;97150.81;5005352;28;1408;-71
2023/11/24 10:48:09;;;;;;;;;;;6.90;99.90;;;6.06;100.00;97151.81;5028031;28;1467;-74
2023/11/24 10:50:46;;;;;;;;;;;6.80;99.90;;;6.15;100.00;97142.97;5020300;28;2011;-72
2023/11/24 10:53:22;;;;;;;;;;;6.80;99.90;;;5.96;100.00;97129.00;5005756;28;1039;-72
2023/11/24 10:55:50;;;;;;;;;;;6.90;99.90;;;5.81;100.00;97123.38;5018250;28;1483;-73
2023/11/24 10:58:18;;;;;;;;;;;6.70;99.90;;;5.92;100.00;97124.78;5000729;28;1517;-72
2023/11/24 11:00:45;;;;;;;;;;;6.60;99.90;;;5.78;100.00;97117.50;4999788;28;1415;-72
2023/11/24 11:03:15;;;;;;;;;;;6.60;99.90;;;5.79;100.00;97112.31;4986395;28;999;-74
2023/11/24 11:06:00;;;;;;;;;;;6.60;99.90;;;5.83;100.00;97110.47;5023259;28;1106;-75
2023/11/24 11:08:34;;;;;;;;;;;6.60;99.90;;;5.97;100.00;97113.47;5006106;28;1077;-74
2023/11/24 11:11:01;;;;;;;;;;;6.50;99.90;;;5.78;100.00;97108.03;5005206;28;1910;-71
2023/11/24 11:13:30;;;;;;;;;;;6.60;99.90;;;5.80;100.00;97103.69;5018869;28;1452;-72
2023/11/24 11:15:57;;;;;;;;;;;6.50;99.90;;;5.74;100.00;97103.03;5023395;28;1387;-71
2023/11/24 11:18:25;;;;;;;;;;;6.50;99.90;;;5.50;100.00;97105.47;5002389;28;1083;-72
2023/11/24 11:20:52;;;;;;;;;;;6.40;99.90;;;5.62;100.00;97086.22;5005506;28;1450;-73
2023/11/24 11:23:19;;;;;;;;;;;6.30;99.90;;;5.57;100.00;97091.50;5022078;28;993;-71
2023/11/24 11:25:50;;;;;;;;;;;6.40;99.90;;;5.61;100.00;97094.81;5023958;28;1046;-71
2023/11/24 11:28:17;;;;;;;;;;;6.40;99.90;;;5.65;100.00;97096.41;5023058;28;1344;-73
2023/11/24 11:30:49;;;;;;;;;;;6.30;99.90;;;5.70;100.00;97093.69;5019492;28;1894;-74
2023/11/24 11:33:19;;;;;;;;;;;6.40;99.90;;;5.65;100.00;97088.69;5004189;28;1091;-72
2023/11/24 11:35:49;;;;;;;;;;;6.40;99.90;;;5.65;100.00;97088.69;5017192;28;994;-73
2023/11/24 11:38:34;;;;;;;;;;;6.40;99.90;;;5.35;100.00;97093.03;5005855;28;1073;-73